Time;durP1;ratioP1;P1;durP2;ratioP2;P2;SDS_P1;SDS_P2;PMS_P1;PMS_P2;Temp;Humidity;BMP_temperature;BMP_pressure;BME280_temperature;BME280_humidity;BME280_pressure;Samples;Min_cycle;Max_cycle;Signal;HPM_P1;HPM_P2
2023/03/09 00:00:08;;;;;;;35.92;25.40;;;11.20;96.10;;;;;;4587760;19;20949;-26
2023/03/09 00:02:00;;;;;;;39.77;27.57;;;11.20;96.00;;;;;;4590656;19;20018;-28
2023/03/09 00:03:32;;;;;;;34.77;24.23;;;11.20;96.00;;;;;;4590572;19;20854;-26
2023/03/09 00:05:04;;;;;;;36.60;23.00;;;11.20;96.00;;;;;;4589897;19;20425;-26
2023/03/09 00:06:36;;;;;;;35.20;24.93;;;11.10;96.00;;;;;;4590649;19;20041;-25
2023/03/09 00:08:07;;;;;;;34.97;25.20;;;11.20;96.00;;;;;;4590592;19;20487;-27
2023/03/09 00:09:39;;;;;;;;;;;11.20;96.00;;;;;;4591735;19;20031;-27
2023/03/09 00:11:10;;;;;;;31.87;21.23;;;11.20;96.10;;;;;;4590743;19;19942;-27
2023/03/09 00:12:43;;;;;;;33.03;24.67;;;11.10;96.00;;;;;;4590507;19;20441;-25
2023/03/09 00:14:15;;;;;;;37.58;27.48;;;11.10;96.00;;;;;;4589405;19;20455;-27
2023/03/09 00:15:49;;;;;;;40.47;29.10;;;11.20;96.00;;;;;;4589561;19;20511;-29
2023/03/09 00:17:22;;;;;;;32.07;23.10;;;11.10;95.90;;;;;;4589528;19;20443;-26
2023/03/09 00:18:54;;;;;;;36.85;26.75;;;11.20;95.90;;;;;;4589921;19;20425;-27
2023/03/09 00:20:26;;;;;;;28.17;21.53;;;11.10;95.90;;;;;;4590462;19;20038;-26
2023/03/09 00:21:57;;;;;;;34.08;23.27;;;11.10;95.80;;;;;;4589413;19;20479;-27
2023/03/09 00:23:30;;;;;;;32.33;24.83;;;11.20;95.80;;;;;;4590387;19;20070;-26
2023/03/09 00:25:01;;;;;;;34.33;24.02;;;11.10;95.80;;;;;;4590357;19;20429;-26
2023/03/09 00:26:34;;;;;;;28.98;21.63;;;11.20;95.90;;;;;;4590191;19;20506;-26
2023/03/09 00:28:06;;;;;;;25.20;18.40;;;11.10;95.80;;;;;;4590496;19;20070;-26
2023/03/09 00:29:38;;;;;;;27.45;20.13;;;11.10;95.90;;;;;;4590214;19;20441;-27
2023/03/09 00:31:09;;;;;;;25.13;20.15;;;11.10;96.00;;;;;;4590104;19;20015;-26
2023/03/09 00:32:41;;;;;;;27.23;20.77;;;11.10;96.10;;;;;;4589208;19;20046;-26
2023/03/09 00:34:15;;;;;;;25.20;17.23;;;11.10;96.20;;;;;;4588284;19;20483;-26
2023/03/09 00:35:47;;;;;;;22.97;17.40;;;11.10;96.20;;;;;;4589553;19;20740;-26
2023/03/09 00:37:21;;;;;;;27.37;18.17;;;11.20;96.10;;;;;;4589628;19;21075;-26
2023/03/09 00:38:53;;;;;;;32.33;25.07;;;11.20;95.90;;;;;;4589580;19;20425;-24
2023/03/09 00:40:25;;;;;;;34.10;26.30;;;11.30;96.00;;;;;;4588968;19;20445;-27
2023/03/09 00:41:56;;;;;;;33.35;25.58;;;11.30;96.00;;;;;;4589971;19;20451;-29
2023/03/09 00:43:29;;;;;;;34.90;24.07;;;11.20;95.90;;;;;;4589855;19;20500;-25
2023/03/09 00:45:00;;;;;;;42.47;27.63;;;11.20;95.90;;;;;;4589973;19;21086;-25
2023/03/09 00:46:32;;;;;;;46.33;28.35;;;11.20;95.90;;;;;;4590211;19;20010;-25
2023/03/09 00:48:04;;;;;;;29.53;20.80;;;11.20;95.90;;;;;;4589819;19;20062;-27
2023/03/09 00:49:35;;;;;;;24.52;16.92;;;11.20;95.90;;;;;;4588827;19;20445;-25
2023/03/09 00:51:07;;;;;;;25.20;18.27;;;11.20;95.90;;;;;;4589399;19;20353;-25
2023/03/09 00:52:39;;;;;;;28.50;20.02;;;11.20;95.80;;;;;;4588952;19;20532;-27
2023/03/09 00:54:13;;;;;;;32.75;20.42;;;11.20;95.90;;;;;;4588460;19;20010;-26
2023/03/09 00:55:45;;;;;;;38.80;21.83;;;11.20;95.90;;;;;;4589424;19;20070;-26
2023/03/09 00:57:16;;;;;;;43.83;23.00;;;11.20;95.90;;;;;;4589710;19;20447;-25
2023/03/09 00:58:50;;;;;;;39.87;23.53;;;11.20;95.80;;;;;;4589807;19;20006;-25
2023/03/09 01:00:22;;;;;;;41.67;20.73;;;11.20;95.80;;;;;;4587801;19;20480;-27
2023/03/09 01:01:54;;;;;;;40.38;21.10;;;11.20;95.80;;;;;;4589593;19;20010;-25
2023/03/09 01:03:25;;;;;;;31.80;19.20;;;11.20;95.90;;;;;;4589479;19;20460;-25
2023/03/09 01:04:58;;;;;;;34.80;19.30;;;11.20;95.90;;;;;;4589696;19;20441;-26
2023/03/09 01:06:30;;;;;;;33.17;19.70;;;11.20;95.80;;;;;;4589459;19;20461;-26
2023/03/09 01:08:01;;;;;;;34.08;19.75;;;11.20;95.80;;;;;;4587013;19;20544;-30
2023/03/09 01:09:33;;;;;;;34.70;19.97;;;11.20;96.00;;;;;;4589417;19;20468;-26
2023/03/09 01:11:07;;;;;;;30.93;19.57;;;11.20;95.70;;;;;;4589956;19;20459;-27
2023/03/09 01:12:39;;;;;;;31.80;19.67;;;11.20;95.70;;;;;;4589426;19;20512;-28
2023/03/09 01:14:11;;;;;;;27.43;17.43;;;11.20;95.70;;;;;;4588364;19;20440;-27
2023/03/09 01:15:45;;;;;;;31.70;19.60;;;11.20;95.90;;;;;;4589113;19;20495;-25
2023/03/09 01:17:16;;;;;;;33.33;19.50;;;11.20;95.70;;;;;;4589779;19;21099;-29
2023/03/09 01:18:49;;;;;;;25.03;16.60;;;11.20;95.70;;;;;;4589311;19;20043;-25
2023/03/09 01:20:21;;;;;;;24.90;16.53;;;11.20;95.60;;;;;;4588450;19;20498;-26
2023/03/09 01:21:54;;;;;;;24.60;17.23;;;11.20;95.70;;;;;;4588079;19;20506;-25
2023/03/09 01:23:26;;;;;;;25.23;17.60;;;11.10;95.70;;;;;;4589101;19;20461;-25
2023/03/09 01:24:59;;;;;;;28.30;18.87;;;11.10;95.70;;;;;;4589293;19;20484;-26
2023/03/09 01:26:31;;;;;;;27.02;17.10;;;11.10;96.00;;;;;;4589115;19;20433;-26
2023/03/09 01:28:03;;;;;;;31.80;19.57;;;11.10;96.00;;;;;;4589542;19;20070;-26
2023/03/09 01:29:35;;;;;;;26.00;17.83;;;11.00;96.00;;;;;;4589217;19;20802;-25
2023/03/09 01:31:11;;;;;;;31.75;19.17;;;11.00;96.00;;;;;;4589020;19;20084;-25
2023/03/09 01:32:44;;;;;;;34.60;19.33;;;11.00;96.00;;;;;;4588041;19;20047;-25
2023/03/09 01:34:17;;;;;;;31.33;19.03;;;11.10;95.90;;;;;;4587127;19;20433;-26
2023/03/09 01:35:49;;;;;;;32.53;19.53;;;11.10;95.90;;;;;;4588592;19;20440;-26
2023/03/09 01:37:21;;;;;;;24.57;15.53;;;11.10;96.00;;;;;;4587800;19;20468;-26
2023/03/09 01:38:53;;;;;;;26.38;17.85;;;11.10;96.00;;;;;;4589157;19;20474;-26
2023/03/09 01:40:26;;;;;;;28.67;17.67;;;11.10;95.90;;;;;;4589443;19;20006;-26
2023/03/09 01:41:59;;;;;;;27.13;18.13;;;11.10;95.90;;;;;;4588757;19;20448;-25
2023/03/09 01:43:44;;;;;;;25.05;15.63;;;11.10;95.90;;;;;;4589107;19;20474;-25
2023/03/09 01:45:19;;;;;;;21.13;15.53;;;11.10;96.00;;;;;;4587780;19;20017;-26
2023/03/09 01:46:56;;;;;;;22.93;16.57;;;11.10;96.00;;;;;;4588935;19;21042;-25
2023/03/09 01:48:29;;;;;;;27.60;16.83;;;11.10;96.00;;;;;;4588222;19;20483;-26
2023/03/09 01:50:02;;;;;;;24.75;17.10;;;11.10;95.90;;;;;;4588681;19;20463;-26
2023/03/09 01:51:59;;;;;;;22.60;15.40;;;11.10;96.00;;;;;;4587878;19;20011;-26
2023/03/09 01:53:31;;;;;;;25.40;16.77;;;11.10;96.00;;;;;;4589060;19;20500;-26
2023/03/09 01:55:09;;;;;;;23.02;15.90;;;11.10;95.90;;;;;;4586669;19;20420;-26
2023/03/09 01:56:41;;;;;;;22.50;15.97;;;11.10;95.90;;;;;;4587835;19;20032;-26
2023/03/09 01:58:18;;;;;;;24.80;17.92;;;11.10;95.90;;;;;;4587716;19;20536;-27
2023/03/09 01:59:52;;;;;;;25.93;17.33;;;11.10;95.90;;;;;;4587381;19;20360;-25
2023/03/09 02:01:25;;;;;;;21.40;16.93;;;11.10;95.90;;;;;;4586544;19;20480;-28
2023/03/09 02:02:59;;;;;;;21.50;15.93;;;11.10;96.00;;;;;;4587552;19;20453;-26
2023/03/09 02:04:52;;;;;;;21.60;16.30;;;11.10;95.90;;;;;;4587306;19;21047;-26
2023/03/09 02:06:25;;;;;;;23.77;17.37;;;11.00;95.90;;;;;;4587611;19;20433;-25
2023/03/09 02:07:58;;;;;;;21.57;17.50;;;11.00;96.00;;;;;;4586095;19;20532;-27
2023/03/09 02:09:38;;;;;;;20.15;16.13;;;11.00;96.00;;;;;;4588144;19;20424;-26
2023/03/09 02:11:09;;;;;;;21.17;17.50;;;11.00;95.90;;;;;;4588504;19;20018;-24
2023/03/09 02:12:41;;;;;;;21.00;16.25;;;11.00;95.90;;;;;;4587258;19;20441;-26
2023/03/09 02:14:14;;;;;;;23.57;16.07;;;11.00;95.90;;;;;;4587126;19;20036;-27
2023/03/09 02:15:46;;;;;;;22.33;17.37;;;11.10;95.90;;;;;;4587254;19;20475;-26
2023/03/09 02:17:18;;;;;;;20.55;15.82;;;11.10;95.90;;;;;;4588116;19;20433;-27
2023/03/09 02:18:50;;;;;;;20.60;15.07;;;11.00;95.90;;;;;;4588724;19;20487;-26
2023/03/09 02:20:28;;;;;;;22.10;16.47;;;11.10;95.90;;;;;;4590247;19;20453;-26
2023/03/09 02:22:01;;;;;;;26.47;17.67;;;11.00;95.90;;;;;;4593067;19;20454;-26
2023/03/09 02:24:00;;;;;;;27.88;19.42;;;11.10;96.00;;;;;;4591850;19;20437;-26
2023/03/09 02:25:41;;;;;;;26.13;18.07;;;11.10;96.00;;;;;;4592857;19;20043;-26
2023/03/09 02:27:21;;;;;;;29.02;18.67;;;11.10;95.80;;;;;;4593186;19;20489;-27
2023/03/09 02:28:52;;;;;;;25.63;18.13;;;11.10;95.90;;;;;;4591924;19;20041;-25
2023/03/09 02:30:27;;;;;;;28.20;18.73;;;11.00;95.80;;;;;;4591437;19;20428;-27
2023/03/09 02:31:58;;;;;;;19.57;16.67;;;11.10;95.80;;;;;;4591628;19;20959;-25
2023/03/09 02:33:30;;;;;;;21.40;16.13;;;11.00;95.80;;;;;;4591647;19;20417;-26
2023/03/09 02:35:03;;;;;;;20.13;15.77;;;11.00;95.90;;;;;;4592547;19;20510;-25
2023/03/09 02:36:36;;;;;;;18.50;13.60;;;11.00;95.90;;;;;;4592862;19;20424;-28
2023/03/09 02:38:11;;;;;;;23.65;15.57;;;11.00;95.80;;;;;;4592481;19;20433;-26
2023/03/09 02:39:45;;;;;;;20.47;14.83;;;11.00;96.10;;;;;;4590532;19;20018;-25
2023/03/09 02:41:17;;;;;;;20.73;14.90;;;11.00;95.80;;;;;;4591117;19;21035;-28
2023/03/09 02:42:49;;;;;;;20.05;14.35;;;11.00;95.80;;;;;;4591939;19;20424;-28
2023/03/09 02:44:24;;;;;;;20.27;14.13;;;11.00;95.80;;;;;;4591156;19;20014;-27
2023/03/09 02:45:56;;;;;;;21.47;14.57;;;11.00;95.70;;;;;;4592075;19;20433;-28
2023/03/09 02:47:29;;;;;;;17.53;13.53;;;11.00;95.80;;;;;;4592358;19;20445;-25
2023/03/09 02:49:00;;;;;;;22.23;15.05;;;11.00;95.70;;;;;;4592237;19;20470;-26
2023/03/09 02:50:31;;;;;;;21.08;14.70;;;11.00;95.70;;;;;;4592335;19;20010;-26
2023/03/09 02:52:04;;;;;;;21.23;15.03;;;11.00;95.60;;;;;;4591513;19;20029;-29
2023/03/09 02:53:35;;;;;;;18.77;14.82;;;11.00;95.60;;;;;;4592303;19;20421;-26
2023/03/09 02:55:07;;;;;;;18.55;14.07;;;11.00;95.60;;;;;;4592138;19;20015;-24
2023/03/09 02:56:38;;;;;;;20.27;14.38;;;11.00;95.70;;;;;;4592259;19;20019;-26
2023/03/09 02:58:09;;;;;;;22.73;15.20;;;11.00;95.70;;;;;;4592080;19;20029;-24
2023/03/09 02:59:41;;;;;;;19.30;13.60;;;11.00;95.70;;;;;;4591546;19;20017;-26
2023/03/09 03:01:13;;;;;;;26.42;16.85;;;11.00;95.70;;;;;;4591968;19;20460;-25
2023/03/09 03:02:44;;;;;;;20.65;15.15;;;11.00;95.70;;;;;;4592201;19;20486;-28
2023/03/09 03:04:16;;;;;;;25.60;18.00;;;11.00;95.60;;;;;;4591925;19;20010;-25
2023/03/09 03:05:49;;;;;;;25.73;17.83;;;11.00;95.60;;;;;;4592270;19;20437;-26
2023/03/09 03:07:22;;;;;;;24.23;16.27;;;11.00;95.60;;;;;;4591903;19;20429;-26
2023/03/09 03:08:54;;;;;;;22.33;15.90;;;11.00;95.60;;;;;;4592264;19;20425;-26
2023/03/09 03:10:27;;;;;;;23.43;16.70;;;11.00;95.50;;;;;;4591801;19;20486;-27
2023/03/09 03:12:00;;;;;;;26.40;18.33;;;11.00;95.50;;;;;;4592176;19;20445;-26
2023/03/09 03:13:31;;;;;;;21.15;15.85;;;11.00;95.50;;;;;;4591906;19;20460;-27
2023/03/09 03:15:05;;;;;;;23.20;15.17;;;11.00;95.50;;;;;;4591981;19;20014;-27
2023/03/09 03:16:38;;;;;;;21.20;14.27;;;10.90;95.40;;;;;;4591403;19;20437;-26
2023/03/09 03:18:09;;;;;;;22.73;14.50;;;11.00;95.40;;;;;;4591731;19;20787;-26
2023/03/09 03:19:40;;;;;;;20.70;14.30;;;11.00;95.60;;;;;;4590168;19;20496;-26
2023/03/09 03:21:13;;;;;;;20.80;15.37;;;11.00;95.40;;;;;;4590419;19;20033;-26
2023/03/09 03:22:44;;;;;;;19.25;14.05;;;11.00;95.40;;;;;;4590612;19;20425;-25
2023/03/09 03:24:16;;;;;;;22.38;15.43;;;11.00;95.40;;;;;;4591300;19;20014;-26
2023/03/09 03:25:47;;;;;;;21.00;14.87;;;11.00;95.40;;;;;;4591396;19;20014;-26
2023/03/09 03:27:20;;;;;;;21.20;14.70;;;10.90;95.30;;;;;;4593185;19;20507;-26
2023/03/09 03:28:51;;;;;;;17.58;13.55;;;10.90;95.40;;;;;;4591812;19;20460;-26
2023/03/09 03:30:22;;;;;;;20.33;15.32;;;10.90;95.50;;;;;;4590003;19;20094;-26
2023/03/09 03:31:55;;;;;;;21.63;14.80;;;10.90;95.40;;;;;;4588468;19;20018;-29
2023/03/09 03:33:26;;;;;;;20.70;15.35;;;10.80;95.40;;;;;;4589202;19;20440;-26
2023/03/09 03:34:58;;;;;;;18.87;14.07;;;10.90;95.40;;;;;;4589715;19;20040;-27
2023/03/09 03:36:30;;;;;;;19.47;13.93;;;10.80;95.40;;;;;;4590796;19;21136;-26
2023/03/09 03:38:03;;;;;;;17.67;14.13;;;10.80;95.30;;;;;;4589199;19;20433;-26
2023/03/09 03:39:35;;;;;;;18.60;14.03;;;10.80;95.30;;;;;;4588416;19;20449;-25
2023/03/09 03:41:08;;;;;;;19.40;13.20;;;10.80;95.30;;;;;;4589021;19;21036;-26
2023/03/09 03:42:40;;;;;;;18.37;12.80;;;10.90;95.20;;;;;;4589172;19;21487;-27
2023/03/09 03:44:13;;;;;;;19.60;13.20;;;10.90;95.20;;;;;;4588953;19;20496;-27
2023/03/09 03:45:44;;;;;;;;;;;10.90;95.20;;;;;;4589799;19;20421;-24
2023/03/09 03:47:15;;;;;;;18.53;13.27;;;10.90;95.20;;;;;;4588936;19;19911;-25
2023/03/09 03:48:46;;;;;;;18.70;12.82;;;10.90;95.10;;;;;;4589120;19;20448;-26
2023/03/09 03:50:19;;;;;;;17.23;12.60;;;10.90;95.20;;;;;;4588820;19;20018;-25
2023/03/09 03:51:50;;;;;;;17.95;12.68;;;10.90;95.10;;;;;;4588806;19;20441;-26
2023/03/09 03:53:22;;;;;;;18.73;13.50;;;10.90;95.20;;;;;;4588826;19;20011;-26
2023/03/09 03:54:54;;;;;;;18.10;12.55;;;10.90;95.10;;;;;;4589031;19;20540;-26
2023/03/09 03:56:25;;;;;;;18.92;13.88;;;11.00;95.10;;;;;;4589497;19;20010;-25
2023/03/09 03:57:57;;;;;;;20.60;13.13;;;10.90;95.10;;;;;;4588855;19;20006;-26
2023/03/09 03:59:30;;;;;;;19.67;12.67;;;10.90;95.10;;;;;;4587447;19;20468;-26
2023/03/09 04:01:01;;;;;;;19.65;14.25;;;10.90;95.00;;;;;;4588677;19;20437;-28
2023/03/09 04:02:34;;;;;;;20.63;15.00;;;10.90;95.00;;;;;;4588623;19;20475;-26
2023/03/09 04:04:07;;;;;;;18.33;14.67;;;10.90;95.10;;;;;;4590882;19;20441;-28
2023/03/09 04:05:40;;;;;;;19.67;13.80;;;10.90;95.10;;;;;;4590607;19;20440;-26
2023/03/09 04:07:12;;;;;;;18.30;12.73;;;10.90;95.10;;;;;;4590909;19;21012;-26
2023/03/09 04:08:44;;;;;;;17.88;13.20;;;10.90;95.00;;;;;;4590783;19;20483;-26
2023/03/09 04:10:15;;;;;;;18.75;13.15;;;10.90;95.10;;;;;;4593088;19;20446;-24
2023/03/09 04:11:47;;;;;;;19.05;13.23;;;10.90;95.00;;;;;;4592638;19;20014;-28
2023/03/09 04:13:19;;;;;;;18.33;13.03;;;10.90;95.10;;;;;;4593099;19;20010;-25
2023/03/09 04:14:51;;;;;;;16.25;11.68;;;10.80;95.10;;;;;;4592000;19;20551;-28
2023/03/09 04:16:22;;;;;;;18.08;12.00;;;10.80;95.10;;;;;;4590143;19;20081;-26
2023/03/09 04:17:54;;;;;;;16.73;11.50;;;10.80;95.10;;;;;;4590943;19;20018;-24
2023/03/09 04:19:27;;;;;;;17.73;12.90;;;10.80;95.00;;;;;;4592404;19;20449;-29
2023/03/09 04:20:58;;;;;;;16.83;11.48;;;10.80;95.10;;;;;;4590803;19;20465;-25
2023/03/09 04:22:29;;;;;;;15.90;11.75;;;10.80;95.30;;;;;;4591694;19;20457;-27
2023/03/09 04:24:01;;;;;;;15.98;11.25;;;10.90;95.00;;;;;;4590608;19;20037;-27
2023/03/09 04:25:32;;;;;;;13.60;10.05;;;10.90;94.80;;;;;;4592854;19;20022;-24
2023/03/09 04:27:04;;;;;;;15.85;11.57;;;10.80;94.60;;;;;;4592783;19;20017;-27
2023/03/09 04:28:36;;;;;;;15.90;11.43;;;10.80;94.60;;;;;;4592753;19;20010;-26
2023/03/09 04:30:08;;;;;;;17.77;11.38;;;10.80;94.60;;;;;;4592377;19;20517;-28
2023/03/09 04:31:41;;;;;;;16.63;10.97;;;10.80;94.70;;;;;;4588814;19;20014;-25
2023/03/09 04:33:12;;;;;;;19.00;10.98;;;10.80;94.70;;;;;;4589383;19;21124;-26
2023/03/09 04:34:43;;;;;;;16.75;10.90;;;10.80;94.60;;;;;;4588520;19;20420;-30
2023/03/09 04:36:15;;;;;;;19.13;11.73;;;10.80;94.70;;;;;;4589334;19;20018;-27
2023/03/09 04:37:46;;;;;;;17.98;11.35;;;10.80;94.60;;;;;;4590062;19;20018;-24
2023/03/09 04:39:17;;;;;;;16.13;11.45;;;10.80;94.60;;;;;;4589847;19;20372;-26
2023/03/09 04:40:49;;;;;;;16.25;10.43;;;10.80;94.70;;;;;;4591141;19;20366;-27
2023/03/09 04:42:20;;;;;;;18.15;11.75;;;10.80;94.70;;;;;;4591686;19;20011;-25
2023/03/09 04:43:51;;;;;;;13.38;10.52;;;10.80;94.70;;;;;;4592853;19;20015;-26
2023/03/09 04:45:23;;;;;;;14.45;11.25;;;10.80;94.60;;;;;;4589865;19;20102;-25
2023/03/09 04:46:54;;;;;;;14.15;10.02;;;10.80;94.50;;;;;;4592643;19;20333;-26
2023/03/09 04:48:25;;;;;;;15.40;10.73;;;10.80;94.60;;;;;;4590218;19;20038;-25
2023/03/09 04:49:58;;;;;;;18.00;12.13;;;10.80;94.60;;;;;;4590399;19;20018;-25
2023/03/09 04:51:31;;;;;;;20.57;13.37;;;10.80;94.50;;;;;;4588882;19;20433;-26
2023/03/09 04:53:03;;;;;;;21.90;14.37;;;10.80;94.40;;;;;;4589426;19;21231;-25
2023/03/09 04:54:35;;;;;;;29.38;18.27;;;10.80;94.40;;;;;;4589948;19;20425;-24
2023/03/09 04:56:08;;;;;;;28.80;17.53;;;10.80;94.50;;;;;;4591331;19;20022;-26
2023/03/09 04:57:41;;;;;;;31.07;18.60;;;10.80;94.30;;;;;;4589686;19;20492;-29
2023/03/09 04:59:13;;;;;;;27.40;17.77;;;10.90;94.30;;;;;;4588902;19;21089;-26
2023/03/09 05:00:44;;;;;;;29.50;18.15;;;10.90;94.20;;;;;;4588347;19;20037;-26
2023/03/09 05:02:16;;;;;;;52.92;40.85;;;10.90;94.10;;;;;;4590542;19;20018;-27
2023/03/09 05:03:47;;;;;;;;;;;10.90;94.00;;;;;;4591135;19;20011;-28
2023/03/09 05:05:19;;;;;;;24.27;16.63;;;10.90;94.20;;;;;;4590100;19;19922;-26
2023/03/09 05:06:50;;;;;;;31.58;25.08;;;10.90;94.00;;;;;;4589148;19;21037;-30
2023/03/09 05:08:23;;;;;;;44.10;32.87;;;10.90;93.90;;;;;;4588939;19;20018;-27
2023/03/09 05:09:55;;;;;;;;;;;11.00;94.00;;;;;;4589582;19;21083;-28
2023/03/09 05:11:26;;;;;;;177.13;114.93;;;11.10;94.00;;;;;;4588082;19;19974;-27
2023/03/09 05:12:57;;;;;;;152.27;96.50;;;11.20;93.90;;;;;;4588199;19;20090;-27
2023/03/09 05:14:29;;;;;;;178.60;108.90;;;11.30;94.10;;;;;;4586707;19;20014;-26
2023/03/09 05:16:04;;;;;;;90.05;54.38;;;11.40;93.70;;;;;;4590150;19;20045;-29
2023/03/09 05:17:37;;;;;;;132.80;90.10;;;11.50;93.70;;;;;;4590481;19;20014;-27
2023/03/09 05:19:09;;;;;;;;;;;11.50;93.60;;;;;;4591528;19;20575;-25
2023/03/09 05:20:41;;;;;;;42.22;37.03;;;11.40;93.60;;;;;;4588560;19;19919;-28
2023/03/09 05:22:13;;;;;;;;;;;11.30;93.90;;;;;;4590446;19;20018;-26
2023/03/09 05:23:44;;;;;;;40.20;32.13;;;11.20;94.00;;;;;;4588610;19;19947;-26
2023/03/09 05:25:15;;;;;;;29.65;23.58;;;11.20;94.00;;;;;;4587615;19;20457;-29
2023/03/09 05:26:47;;;;;;;23.33;16.50;;;11.10;93.90;;;;;;4588187;19;20022;-25
2023/03/09 05:28:19;;;;;;;21.20;14.97;;;11.10;93.90;;;;;;4590181;19;20015;-30
2023/03/09 05:29:52;;;;;;;22.17;16.25;;;11.10;93.90;;;;;;4587082;19;20506;-26
2023/03/09 05:31:23;;;;;;;20.63;15.33;;;11.10;94.00;;;;;;4588420;19;20078;-27
2023/03/09 05:32:54;;;;;;;20.02;12.48;;;11.10;94.00;;;;;;4588797;19;20596;-26
2023/03/09 05:34:25;;;;;;;20.60;15.82;;;11.10;94.00;;;;;;4587399;19;20096;-27
2023/03/09 05:35:58;;;;;;;31.03;24.00;;;11.10;94.00;;;;;;4586101;19;20046;-27
2023/03/09 05:37:32;;;;;;;36.42;29.38;;;11.10;93.90;;;;;;4586794;19;20910;-26
2023/03/09 05:39:04;;;;;;;20.63;15.77;;;11.00;93.90;;;;;;4587027;19;20011;-26
2023/03/09 05:40:36;;;;;;;49.87;34.23;;;11.00;93.90;;;;;;4585214;19;20461;-25
2023/03/09 05:42:07;;;;;;;50.47;35.47;;;11.00;93.70;;;;;;4589495;19;20823;-24
2023/03/09 05:43:41;;;;;;;57.85;42.53;;;11.00;93.70;;;;;;4589543;19;20340;-27
2023/03/09 05:45:13;;;;;;;35.70;26.73;;;11.00;93.80;;;;;;4589267;19;20070;-30
2023/03/09 05:46:45;;;;;;;52.40;40.15;;;11.00;93.80;;;;;;4588009;19;20551;-27
2023/03/09 05:48:16;;;;;;;37.15;29.88;;;11.00;93.80;;;;;;4588440;19;20021;-24
2023/03/09 05:49:49;;;;;;;29.83;23.30;;;11.00;93.80;;;;;;4588133;19;20086;-23
2023/03/09 05:51:20;;;;;;;24.57;18.03;;;11.00;93.80;;;;;;4586537;19;20452;-25
2023/03/09 05:52:52;;;;;;;20.70;16.30;;;11.00;93.70;;;;;;4587032;19;20455;-24
2023/03/09 05:54:24;;;;;;;21.87;17.50;;;11.00;93.80;;;;;;4589909;19;20444;-25
2023/03/09 05:55:56;;;;;;;32.05;24.70;;;11.10;93.70;;;;;;4591835;19;20483;-26
2023/03/09 05:57:27;;;;;;;21.00;16.25;;;11.10;93.70;;;;;;4594802;19;20021;-28
2023/03/09 05:58:59;;;;;;;22.15;18.38;;;11.10;93.60;;;;;;4594408;19;20126;-29
2023/03/09 06:00:30;;;;;;;27.77;21.27;;;11.10;93.70;;;;;;4591117;19;20028;-26
2023/03/09 06:02:01;;;;;;;30.58;23.10;;;11.10;93.50;;;;;;4593623;19;20013;-27
2023/03/09 06:03:33;;;;;;;27.92;20.45;;;11.20;93.60;;;;;;4592785;19;20035;-25
2023/03/09 06:05:04;;;;;;;30.85;22.92;;;11.20;93.60;;;;;;4592589;19;20586;-27
2023/03/09 06:06:36;;;;;;;;;;;11.20;93.60;;;;;;4593130;19;20401;-26
2023/03/09 06:08:07;;;;;;;23.80;17.88;;;11.20;93.60;;;;;;4591913;19;19918;-25
2023/03/09 06:09:40;;;;;;;26.23;21.80;;;11.20;93.40;;;;;;4591582;19;20027;-26
2023/03/09 06:11:11;;;;;;;25.13;19.30;;;11.20;93.50;;;;;;4591946;19;20421;-26
2023/03/09 06:12:43;;;;;;;20.92;16.70;;;11.20;93.60;;;;;;4594056;19;20041;-26
2023/03/09 06:14:14;;;;;;;36.67;26.98;;;11.20;93.60;;;;;;4593606;19;20528;-26
2023/03/09 06:15:46;;;;;;;24.30;19.52;;;11.20;93.50;;;;;;4593618;19;20014;-30
2023/03/09 06:17:18;;;;;;;35.23;28.90;;;11.20;93.50;;;;;;4593026;19;20014;-25
2023/03/09 06:18:49;;;;;;;24.10;19.90;;;11.20;93.50;;;;;;4592391;19;20457;-26
2023/03/09 06:20:21;;;;;;;41.13;32.33;;;11.20;93.60;;;;;;4590929;19;20109;-28
2023/03/09 06:21:52;;;;;;;45.30;34.22;;;11.20;93.50;;;;;;4589433;19;20015;-26
2023/03/09 06:23:24;;;;;;;28.58;20.92;;;11.20;93.50;;;;;;4591648;19;20019;-29
2023/03/09 06:24:56;;;;;;;28.53;23.90;;;11.20;93.50;;;;;;4593000;19;20100;-28
2023/03/09 06:26:28;;;;;;;30.17;23.67;;;11.20;93.50;;;;;;4593267;19;20429;-26
2023/03/09 06:28:01;;;;;;;25.00;22.30;;;11.20;93.40;;;;;;4592904;19;20445;-28
2023/03/09 06:29:32;;;;;;;24.17;20.77;;;11.30;93.70;;;;;;4592862;19;20807;-27
2023/03/09 06:31:13;;;;;;;19.17;14.10;;;11.40;93.40;;;;;;4592612;19;20479;-27
2023/03/09 06:32:44;;;;;;;20.20;14.80;;;11.40;93.30;;;;;;4591837;19;20471;-26
2023/03/09 06:34:15;;;;;;;21.90;15.52;;;11.40;93.20;;;;;;4591061;19;20799;-26
2023/03/09 06:35:46;;;;;;;21.92;15.10;;;11.40;93.20;;;;;;4592833;19;20013;-26
2023/03/09 06:37:37;;;;;;;21.70;16.03;;;11.30;93.40;;;;;;4590081;19;20407;-26
2023/03/09 06:39:09;;;;;;;19.40;14.15;;;11.30;93.40;;;;;;4590563;19;20459;-27
2023/03/09 06:40:41;;;;;;;20.33;12.67;;;11.30;93.60;;;;;;4588742;19;20019;-26
2023/03/09 06:42:14;;;;;;;15.67;10.80;;;11.30;93.70;;;;;;4590402;19;20421;-26
2023/03/09 06:43:47;;;;;;;13.30;9.45;;;11.20;93.60;;;;;;4590451;19;20440;-26
2023/03/09 06:45:23;;;;;;;14.77;9.53;;;11.20;93.50;;;;;;4590305;19;20480;-27
2023/03/09 06:46:55;;;;;;;15.43;10.77;;;11.20;93.30;;;;;;4590305;19;20873;-27
2023/03/09 06:48:26;;;;;;;15.13;10.10;;;11.20;93.70;;;;;;4590378;19;20491;-28
2023/03/09 06:49:58;;;;;;;17.77;10.80;;;11.20;93.40;;;;;;4590102;19;20048;-26
2023/03/09 06:51:31;;;;;;;15.87;10.97;;;11.10;93.20;;;;;;4589941;19;20014;-26
2023/03/09 06:53:03;;;;;;;17.37;10.77;;;11.10;93.30;;;;;;4590029;19;20477;-26
2023/03/09 06:54:36;;;;;;;17.83;10.90;;;11.10;93.40;;;;;;4590052;19;20459;-26
2023/03/09 06:56:07;;;;;;;28.02;17.20;;;11.20;93.40;;;;;;4590702;19;20453;-25
2023/03/09 06:57:40;;;;;;;23.73;13.70;;;11.20;93.30;;;;;;4592268;19;20487;-27
2023/03/09 06:59:11;;;;;;;19.83;12.77;;;11.20;93.10;;;;;;4592469;19;21455;-25
2023/03/09 07:00:46;;;;;;;18.60;13.27;;;11.20;93.10;;;;;;4590220;19;20434;-26
2023/03/09 07:02:19;;;;;;;18.57;11.93;;;11.20;93.00;;;;;;4592106;19;20551;-25
2023/03/09 07:03:52;;;;;;;15.53;10.00;;;11.10;93.10;;;;;;4591944;19;21119;-27
2023/03/09 07:05:23;;;;;;;17.48;11.18;;;11.10;93.20;;;;;;4590942;19;20441;-26
2023/03/09 07:06:56;;;;;;;21.63;12.53;;;11.10;93.20;;;;;;4590757;19;20073;-26
2023/03/09 07:08:29;;;;;;;15.57;11.40;;;11.10;93.00;;;;;;4591466;19;21084;-27
2023/03/09 07:10:00;;;;;;;15.55;10.85;;;11.10;93.00;;;;;;4592113;19;20421;-29
2023/03/09 07:11:32;;;;;;;16.55;10.60;;;11.10;93.10;;;;;;4592062;19;20021;-27
2023/03/09 07:13:05;;;;;;;13.27;8.47;;;11.10;93.00;;;;;;4591678;19;20015;-30
2023/03/09 07:14:36;;;;;;;13.77;9.18;;;11.10;92.70;;;;;;4591951;19;20468;-27
2023/03/09 07:16:09;;;;;;;15.03;9.50;;;11.10;92.70;;;;;;4592102;19;20002;-28
2023/03/09 07:17:42;;;;;;;17.65;11.85;;;11.10;92.90;;;;;;4590672;19;20445;-26
2023/03/09 07:19:14;;;;;;;14.93;11.13;;;11.10;93.00;;;;;;4591305;19;20018;-27
2023/03/09 07:20:47;;;;;;;17.40;11.60;;;11.10;92.80;;;;;;4590399;19;20465;-26
2023/03/09 07:22:19;;;;;;;22.02;12.35;;;11.10;92.70;;;;;;4592069;19;20425;-29
2023/03/09 07:23:50;;;;;;;17.92;11.80;;;11.00;92.60;;;;;;4590558;19;20013;-26
2023/03/09 07:25:22;;;;;;;23.10;12.97;;;11.00;92.80;;;;;;4591024;19;20029;-25
2023/03/09 07:26:53;;;;;;;22.17;13.98;;;11.00;92.60;;;;;;4591224;19;20524;-27
2023/03/09 07:28:25;;;;;;;16.20;9.13;;;11.00;92.60;;;;;;4591040;19;20070;-25
2023/03/09 07:29:57;;;;;;;14.25;9.13;;;11.00;92.50;;;;;;4591453;19;20003;-27
2023/03/09 07:31:29;;;;;;;16.20;10.60;;;11.00;92.50;;;;;;4591536;19;20468;-26
2023/03/09 07:33:00;;;;;;;15.20;9.43;;;11.00;92.60;;;;;;4591635;19;20536;-25
2023/03/09 07:34:33;;;;;;;15.40;10.00;;;11.00;92.50;;;;;;4590682;19;20028;-26
2023/03/09 07:36:06;;;;;;;14.57;9.00;;;11.00;92.40;;;;;;4590315;19;20524;-24
2023/03/09 07:37:37;;;;;;;;;;;11.00;92.20;;;;;;4591982;19;20425;-26
2023/03/09 07:39:08;;;;;;;22.53;13.50;;;11.00;92.50;;;;;;4591628;19;19926;-27
2023/03/09 07:40:40;;;;;;;15.57;10.27;;;11.00;92.40;;;;;;4588900;19;20440;-26
2023/03/09 07:42:12;;;;;;;18.40;11.70;;;11.00;92.20;;;;;;4590698;19;20498;-25
2023/03/09 07:43:46;;;;;;;20.92;13.00;;;11.00;92.30;;;;;;4591171;19;20015;-26
2023/03/09 07:45:18;;;;;;;18.53;11.90;;;11.10;92.70;;;;;;4591218;19;20488;-26
2023/03/09 07:46:50;;;;;;;16.10;10.70;;;11.00;92.60;;;;;;4591159;19;20441;-26
2023/03/09 07:48:22;;;;;;;15.00;9.27;;;11.00;92.40;;;;;;4590070;19;20507;-25
2023/03/09 07:49:53;;;;;;;;;;;11.10;92.80;;;;;;4591553;19;20037;-29
2023/03/09 07:51:26;;;;;;;;;;;11.10;92.40;;;;;;4592039;19;19922;-26